createdAt,value
2018-04-12T00:00:58.388Z,15.40
2018-04-12T00:01:59.064Z,15.36
2018-04-12T00:02:59.742Z,15.39
2018-04-12T00:04:00.412Z,15.43
2018-04-12T00:05:01.086Z,15.39
2018-04-12T00:06:01.765Z,15.40
2018-04-12T00:07:02.433Z,15.36
2018-04-12T00:08:03.105Z,15.36
2018-04-12T00:09:03.777Z,15.36
2018-04-12T00:10:04.448Z,15.40
2018-04-12T00:11:05.127Z,15.31
2018-04-12T00:12:05.805Z,15.39
2018-04-12T00:13:06.480Z,15.35
2018-04-12T00:14:07.153Z,15.42
2018-04-12T00:15:07.824Z,15.36
2018-04-12T00:16:08.492Z,15.36
2018-04-12T00:17:09.173Z,15.25
2018-04-12T00:18:09.846Z,15.28
2018-04-12T00:19:10.525Z,15.33
2018-04-12T00:20:11.209Z,15.37
2018-04-12T00:21:11.884Z,15.29
2018-04-12T00:22:12.556Z,15.33
2018-04-12T00:23:13.230Z,15.33
2018-04-12T00:24:13.903Z,15.31
2018-04-12T00:25:14.573Z,15.28
2018-04-12T00:26:15.244Z,15.29
2018-04-12T00:27:15.917Z,15.31
2018-04-12T00:28:16.587Z,15.36
2018-04-12T00:29:17.266Z,15.36
2018-04-12T00:30:17.938Z,15.36
2018-04-12T00:31:18.626Z,15.29
2018-04-12T00:32:19.294Z,15.39
2018-04-12T00:33:19.975Z,15.42
2018-04-12T00:34:20.645Z,15.42
2018-04-12T00:35:21.319Z,15.54
2018-04-12T00:36:21.993Z,15.52
2018-04-12T00:37:22.668Z,15.46
2018-04-12T00:38:23.344Z,15.46
2018-04-12T00:39:24.015Z,15.40
2018-04-12T00:40:24.685Z,15.43
2018-04-12T00:41:25.358Z,15.44
2018-04-12T00:42:26.032Z,15.44
2018-04-12T00:43:26.713Z,15.42
2018-04-12T00:44:27.383Z,15.47
2018-04-12T00:45:28.064Z,15.43
2018-04-12T00:46:28.737Z,15.47
2018-04-12T00:47:29.410Z,15.37
2018-04-12T00:48:30.091Z,15.39
2018-04-12T00:49:30.767Z,15.37
2018-04-12T00:50:31.440Z,15.42
2018-04-12T00:51:32.113Z,15.37
2018-04-12T00:52:32.781Z,15.31
2018-04-12T00:53:33.454Z,15.35
2018-04-12T00:54:34.127Z,15.29
2018-04-12T00:55:34.805Z,15.43
2018-04-12T00:56:35.484Z,15.35
2018-04-12T00:57:36.158Z,15.39
2018-04-12T00:58:36.839Z,15.40
2018-04-12T00:59:37.511Z,15.39
2018-04-12T01:00:38.190Z,15.37
2018-04-12T01:01:38.863Z,15.31
2018-04-12T01:02:39.538Z,15.29
2018-04-12T01:03:40.207Z,15.25
2018-04-12T01:04:40.878Z,15.27
2018-04-12T01:05:41.552Z,15.27
2018-04-12T01:06:42.226Z,15.29
2018-04-12T01:07:42.906Z,15.25
2018-04-12T01:08:43.579Z,15.21
2018-04-12T01:09:44.254Z,15.15
2018-04-12T01:10:44.927Z,15.17
2018-04-12T01:11:45.599Z,15.15
2018-04-12T01:12:46.272Z,15.25
2018-04-12T01:13:46.950Z,15.37
2018-04-12T01:14:47.618Z,15.24
2018-04-12T01:15:48.297Z,15.22
2018-04-12T01:16:48.969Z,15.25
2018-04-12T01:17:49.639Z,15.21
2018-04-12T01:18:50.313Z,15.17
2018-04-12T01:19:50.994Z,15.19
2018-04-12T01:20:51.664Z,15.25
2018-04-12T01:21:52.337Z,15.21
2018-04-12T01:22:53.014Z,15.25
2018-04-12T01:23:53.687Z,15.11
2018-04-12T01:24:54.359Z,15.19
2018-04-12T01:25:55.039Z,15.24
2018-04-12T01:26:55.710Z,15.22
2018-04-12T01:27:56.384Z,15.27
2018-04-12T01:28:57.056Z,15.27
2018-04-12T01:29:57.727Z,15.33
2018-04-12T01:30:58.395Z,15.24
2018-04-12T01:31:59.077Z,15.19
2018-04-12T01:32:59.752Z,15.22
2018-04-12T01:34:00.422Z,15.24
2018-04-12T01:35:01.095Z,15.25
2018-04-12T01:36:01.761Z,15.18
2018-04-12T01:37:02.443Z,15.24
2018-04-12T01:38:03.112Z,15.19
2018-04-12T01:39:03.785Z,15.14
2018-04-12T01:40:04.461Z,15.10
2018-04-12T01:41:05.134Z,15.17
2018-04-12T01:42:05.818Z,15.17
2018-04-12T01:43:06.487Z,15.10
2018-04-12T01:44:07.157Z,15.18
2018-04-12T01:45:07.832Z,15.17
2018-04-12T01:46:08.503Z,15.09
2018-04-12T01:47:09.173Z,15.14
2018-04-12T01:48:09.853Z,15.14
2018-04-12T01:49:10.525Z,14.92
2018-04-12T01:50:11.203Z,15.07
2018-04-12T01:51:11.876Z,15.02
2018-04-12T01:52:12.547Z,14.99
2018-04-12T01:53:13.236Z,15.03
2018-04-12T01:54:13.888Z,14.97
2018-04-12T01:55:14.564Z,14.96
2018-04-12T01:56:15.235Z,14.88
2018-04-12T01:57:15.908Z,14.94
2018-04-12T01:58:16.579Z,14.86
2018-04-12T01:59:17.255Z,14.79
2018-04-12T02:00:17.928Z,14.82
2018-04-12T02:01:18.603Z,14.81
2018-04-12T02:02:19.278Z,14.81
2018-04-12T02:03:19.952Z,14.72
2018-04-12T02:04:20.626Z,14.68
2018-04-12T02:05:21.297Z,14.72
2018-04-12T02:06:21.973Z,14.77
2018-04-12T02:07:22.646Z,14.65
2018-04-12T02:08:23.317Z,14.60
2018-04-12T02:09:23.989Z,14.55
2018-04-12T02:10:24.750Z,14.58
2018-04-12T02:11:25.423Z,14.54
2018-04-12T02:12:26.098Z,14.55
2018-04-12T02:13:26.773Z,14.59
2018-04-12T02:14:27.446Z,14.54
2018-04-12T02:15:28.119Z,14.59
2018-04-12T02:16:28.792Z,14.60
2018-04-12T02:17:29.468Z,14.54
2018-04-12T02:18:30.136Z,14.53
2018-04-12T02:19:30.809Z,14.51
2018-04-12T02:20:31.476Z,14.58
2018-04-12T02:21:32.150Z,14.45
2018-04-12T02:22:32.832Z,14.54
2018-04-12T02:23:33.506Z,14.53
2018-04-12T02:24:34.179Z,14.41
2018-04-12T02:25:34.852Z,14.41
2018-04-12T02:26:35.524Z,14.48
2018-04-12T02:27:36.197Z,14.43
2018-04-12T02:28:36.877Z,14.44
2018-04-12T02:29:37.553Z,14.43
2018-04-12T02:30:38.229Z,14.53
2018-04-12T02:31:38.899Z,14.53
2018-04-12T02:32:39.570Z,14.44
2018-04-12T02:33:40.244Z,14.40
2018-04-12T02:34:40.914Z,14.44
2018-04-12T02:35:41.589Z,14.47
2018-04-12T02:36:42.262Z,14.45
2018-04-12T02:37:42.936Z,14.44
2018-04-12T02:38:43.608Z,14.40
2018-04-12T02:39:44.279Z,14.48
2018-04-12T02:40:44.956Z,14.47
2018-04-12T02:41:45.645Z,14.43
2018-04-12T02:42:46.322Z,14.47
2018-04-12T02:43:46.999Z,14.43
2018-04-12T02:44:47.667Z,14.37
2018-04-12T02:45:48.349Z,14.43
2018-04-12T02:46:49.023Z,14.35
2018-04-12T02:47:49.695Z,14.47
2018-04-12T02:48:50.368Z,14.44
2018-04-12T02:49:51.047Z,14.40
2018-04-12T02:50:51.716Z,14.47
2018-04-12T02:51:52.392Z,14.45
2018-04-12T02:52:53.062Z,14.44
2018-04-12T02:53:53.733Z,14.43
2018-04-12T02:54:54.406Z,14.37
2018-04-12T02:55:55.077Z,14.35
2018-04-12T02:56:55.752Z,14.41
2018-04-12T02:57:56.427Z,14.37
2018-04-12T02:58:57.103Z,14.40
2018-04-12T02:59:57.778Z,14.45
2018-04-12T03:00:58.449Z,14.44
2018-04-12T03:01:59.128Z,14.44
2018-04-12T03:02:59.802Z,14.33
2018-04-12T03:04:00.475Z,14.30
2018-04-12T03:05:01.151Z,14.36
2018-04-12T03:06:01.824Z,14.33
2018-04-12T03:07:02.501Z,14.17
2018-04-12T03:08:03.172Z,14.23
2018-04-12T03:09:03.845Z,14.22
2018-04-12T03:10:04.517Z,14.23
2018-04-12T03:11:05.195Z,14.23
2018-04-12T03:12:05.879Z,14.23
2018-04-12T03:13:06.550Z,14.29
2018-04-12T03:14:07.224Z,14.23
2018-04-12T03:15:07.893Z,14.32
2018-04-12T03:16:08.567Z,14.30
2018-04-12T03:17:09.241Z,14.23
2018-04-12T03:18:09.911Z,14.23
2018-04-12T03:19:10.583Z,14.28
2018-04-12T03:20:11.254Z,14.26
2018-04-12T03:21:11.921Z,14.25
2018-04-12T03:22:12.604Z,14.30
2018-04-12T03:23:13.271Z,14.26
2018-04-12T03:24:13.955Z,14.26
2018-04-12T03:25:14.631Z,14.25
2018-04-12T03:26:15.304Z,14.23
2018-04-12T03:27:15.983Z,14.26
2018-04-12T03:28:16.650Z,14.22
2018-04-12T03:29:17.326Z,14.23
2018-04-12T03:30:18.002Z,14.25
2018-04-12T03:31:18.675Z,14.23
2018-04-12T03:32:19.355Z,14.20
2018-04-12T03:33:20.026Z,14.18
2018-04-12T03:34:20.708Z,14.22
2018-04-12T03:35:21.384Z,14.30
2018-04-12T03:36:22.054Z,14.25
2018-04-12T03:37:22.725Z,14.29
2018-04-12T03:38:23.396Z,14.22
2018-04-12T03:39:24.069Z,14.28
2018-04-12T03:40:24.740Z,14.20
2018-04-12T03:41:25.419Z,14.30
2018-04-12T03:42:26.095Z,14.30
2018-04-12T03:43:26.766Z,14.23
2018-04-12T03:44:27.440Z,14.22
2018-04-12T03:45:28.122Z,14.25
2018-04-12T03:46:28.793Z,14.23
2018-04-12T03:47:29.462Z,14.25
2018-04-12T03:48:30.137Z,14.23
2018-04-12T03:49:30.810Z,14.23
2018-04-12T03:50:31.523Z,14.17
2018-04-12T03:51:32.160Z,14.18
2018-04-12T03:52:32.828Z,14.20
2018-04-12T03:53:33.499Z,14.28
2018-04-12T03:54:34.173Z,14.30
2018-04-12T03:55:34.855Z,14.23
2018-04-12T03:56:35.520Z,14.26
2018-04-12T03:57:36.193Z,14.22
2018-04-12T03:58:36.864Z,14.18
2018-04-12T03:59:37.537Z,14.25
2018-04-12T04:00:38.210Z,14.12
2018-04-12T04:01:38.887Z,14.15
2018-04-12T04:02:39.552Z,14.14
2018-04-12T04:03:40.225Z,14.12
2018-04-12T04:04:40.896Z,14.12
2018-04-12T04:05:41.569Z,14.00
2018-04-12T04:06:42.241Z,14.08
2018-04-12T04:07:42.913Z,14.05
2018-04-12T04:08:43.585Z,14.11
2018-04-12T04:09:44.256Z,14.03
2018-04-12T04:10:44.930Z,14.00
2018-04-12T04:11:45.603Z,14.05
2018-04-12T04:12:46.274Z,14.03
2018-04-12T04:13:46.947Z,14.05
2018-04-12T04:14:47.616Z,14.00
2018-04-12T04:15:48.292Z,13.95
2018-04-12T04:16:48.964Z,14.00
2018-04-12T04:17:49.636Z,13.95
2018-04-12T04:18:50.304Z,14.03
2018-04-12T04:19:50.980Z,14.07
2018-04-12T04:20:51.688Z,14.07
2018-04-12T04:21:52.320Z,14.05
2018-04-12T04:22:52.996Z,14.05
2018-04-12T04:23:53.670Z,13.99
2018-04-12T04:24:54.345Z,14.03
2018-04-12T04:25:55.016Z,14.03
2018-04-12T04:26:55.693Z,13.99
2018-04-12T04:27:56.370Z,13.99
2018-04-12T04:28:57.039Z,14.00
2018-04-12T04:29:57.717Z,14.03
2018-04-12T04:30:58.392Z,14.03
2018-04-12T04:31:59.064Z,13.96
2018-04-12T04:32:59.736Z,13.96
2018-04-12T04:34:00.409Z,13.87
2018-04-12T04:35:01.080Z,13.99
2018-04-12T04:36:01.755Z,13.95
2018-04-12T04:37:02.430Z,13.96
2018-04-12T04:38:03.100Z,13.97
2018-04-12T04:39:03.778Z,13.97
2018-04-12T04:40:04.452Z,14.00
2018-04-12T04:41:05.123Z,13.97
2018-04-12T04:42:05.793Z,13.97
2018-04-12T04:43:06.463Z,14.00
2018-04-12T04:44:07.135Z,14.04
2018-04-12T04:45:07.804Z,13.85
2018-04-12T04:46:08.476Z,14.00
2018-04-12T04:47:09.152Z,14.00
2018-04-12T04:48:09.888Z,13.89
2018-04-12T04:49:10.499Z,13.96
2018-04-12T04:50:11.175Z,14.03
2018-04-12T04:51:11.849Z,13.97
2018-04-12T04:52:12.524Z,14.03
2018-04-12T04:53:13.199Z,14.00
2018-04-12T04:54:13.875Z,13.97
2018-04-12T04:55:14.549Z,14.03
2018-04-12T04:56:15.222Z,14.04
2018-04-12T04:57:15.901Z,13.96
2018-04-12T04:58:16.572Z,13.96
2018-04-12T04:59:17.255Z,13.97
2018-04-12T05:00:17.928Z,13.92
2018-04-12T05:01:18.603Z,13.87
2018-04-12T05:02:19.281Z,13.86
2018-04-12T05:03:19.958Z,13.87
2018-04-12T05:04:20.635Z,13.93
2018-04-12T05:05:21.305Z,13.92
2018-04-12T05:06:21.980Z,13.90
2018-04-12T05:07:22.654Z,13.90
2018-04-12T05:08:23.330Z,13.78
2018-04-12T05:09:24.006Z,13.81
2018-04-12T05:10:24.685Z,13.70
2018-04-12T05:11:25.367Z,13.75
2018-04-12T05:12:26.040Z,13.71
2018-04-12T05:13:26.724Z,13.72
2018-04-12T05:14:27.408Z,13.74
2018-04-12T05:15:28.147Z,13.74
2018-04-12T05:16:28.758Z,13.74
2018-04-12T05:17:29.430Z,13.67
2018-04-12T05:18:30.104Z,13.63
2018-04-12T05:19:30.781Z,13.74
2018-04-12T05:20:31.457Z,13.71
2018-04-12T05:21:32.129Z,13.65
2018-04-12T05:22:32.809Z,13.70
2018-04-12T05:23:33.485Z,13.81
2018-04-12T05:24:34.162Z,13.83
2018-04-12T05:25:34.837Z,13.70
2018-04-12T05:26:35.560Z,13.72
2018-04-12T05:27:36.186Z,13.77
2018-04-12T05:28:36.865Z,13.71
2018-04-12T05:29:37.539Z,13.75
2018-04-12T05:30:38.211Z,13.87
2018-04-12T05:31:38.885Z,13.83
2018-04-12T05:32:39.566Z,13.87
2018-04-12T05:33:40.240Z,13.90
2018-04-12T05:34:40.915Z,13.89
2018-04-12T05:35:41.592Z,13.81
2018-04-12T05:36:42.268Z,13.83
2018-04-12T05:37:42.944Z,13.87
2018-04-12T05:38:43.621Z,13.95
2018-04-12T05:39:44.294Z,13.85
2018-04-12T05:40:44.973Z,13.89
2018-04-12T05:41:45.649Z,13.87
2018-04-12T05:42:46.321Z,14.03
2018-04-12T05:43:46.999Z,13.96
2018-04-12T05:44:47.683Z,13.90
2018-04-12T05:45:48.363Z,13.87
2018-04-12T05:46:49.040Z,13.95
2018-04-12T05:47:49.714Z,13.92
2018-04-12T05:48:50.393Z,14.08
2018-04-12T05:49:51.066Z,14.10
2018-04-12T05:50:51.742Z,14.04
2018-04-12T05:51:52.416Z,14.10
2018-04-12T05:52:53.137Z,14.04
2018-04-12T05:53:53.783Z,14.08
2018-04-12T05:54:54.460Z,14.07
2018-04-12T05:55:55.144Z,14.11
2018-04-12T05:56:55.820Z,14.05
2018-04-12T05:57:56.494Z,14.03
2018-04-12T05:58:57.170Z,13.96
2018-04-12T05:59:57.850Z,13.95
2018-04-12T06:00:58.526Z,13.95
2018-04-12T06:01:59.208Z,13.99
2018-04-12T06:02:59.884Z,14.03
2018-04-12T06:04:00.587Z,14.04
2018-04-12T06:05:01.237Z,13.99
2018-04-12T06:06:01.949Z,13.97
2018-04-12T06:07:02.603Z,13.97
2018-04-12T06:08:03.276Z,13.99
2018-04-12T06:09:03.950Z,13.95
2018-04-12T06:10:04.640Z,14.00
2018-04-12T06:11:05.311Z,13.89
2018-04-12T06:12:05.986Z,13.89
2018-04-12T06:13:06.658Z,13.78
2018-04-12T06:14:07.329Z,13.77
2018-04-12T06:15:08.007Z,13.85
2018-04-12T06:16:08.682Z,13.89
2018-04-12T06:17:09.360Z,13.89
2018-04-12T06:18:10.031Z,13.81
2018-04-12T06:19:10.707Z,13.97
2018-04-12T06:20:11.380Z,13.90
2018-04-12T06:21:12.062Z,13.90
2018-04-12T06:22:12.742Z,13.95
2018-04-12T06:23:13.415Z,13.89
2018-04-12T06:24:14.089Z,13.95
2018-04-12T06:25:14.768Z,13.95
2018-04-12T06:26:15.446Z,14.00
2018-04-12T06:27:16.120Z,14.00
2018-04-12T06:28:16.795Z,14.14
2018-04-12T06:29:17.470Z,14.11
2018-04-12T06:30:18.152Z,14.10
2018-04-12T06:31:18.830Z,14.18
2018-04-12T06:32:19.508Z,14.18
2018-04-12T06:33:20.182Z,14.28
2018-04-12T06:34:20.860Z,14.30
2018-04-12T06:35:21.537Z,14.32
2018-04-12T06:36:22.227Z,14.45
2018-04-12T06:37:22.901Z,14.37
2018-04-12T06:38:23.574Z,14.51
2018-04-12T06:39:24.251Z,14.53
2018-04-12T06:40:24.930Z,14.44
2018-04-12T06:41:25.615Z,14.43
2018-04-12T06:42:26.284Z,14.55
2018-04-12T06:43:26.963Z,14.53
2018-04-12T06:44:27.638Z,14.55
2018-04-12T06:45:28.320Z,14.60
2018-04-12T06:46:28.994Z,14.54
2018-04-12T06:47:29.670Z,14.60
2018-04-12T06:48:30.348Z,14.62
2018-04-12T06:49:31.037Z,14.66
2018-04-12T06:50:31.709Z,14.72
2018-04-12T06:51:32.388Z,14.73
2018-04-12T06:52:33.066Z,14.85
2018-04-12T06:53:33.747Z,14.79
2018-04-12T06:54:34.428Z,14.85
2018-04-12T06:55:35.107Z,14.97
2018-04-12T06:56:35.791Z,14.99
2018-04-12T06:57:36.468Z,14.99
2018-04-12T06:58:37.147Z,15.07
2018-04-12T06:59:37.828Z,15.02
2018-04-12T07:00:38.503Z,15.02
2018-04-12T07:01:39.192Z,15.03
2018-04-12T07:02:39.861Z,15.06
2018-04-12T07:03:40.541Z,15.07
2018-04-12T07:04:41.221Z,15.07
2018-04-12T07:05:41.896Z,15.14
2018-04-12T07:06:42.575Z,15.14
2018-04-12T07:07:43.253Z,15.22
2018-04-12T07:08:43.929Z,15.24
2018-04-12T07:09:44.608Z,15.21
2018-04-12T07:10:45.287Z,15.29
2018-04-12T07:11:45.966Z,15.35
2018-04-12T07:12:46.640Z,15.24
2018-04-12T07:13:47.317Z,15.35
2018-04-12T07:14:48.005Z,15.46
2018-04-12T07:15:48.682Z,15.51
2018-04-12T07:16:49.365Z,15.43
2018-04-12T07:17:50.047Z,15.55
2018-04-12T07:18:50.722Z,15.49
2018-04-12T07:19:51.401Z,15.55
2018-04-12T07:20:52.078Z,15.61
2018-04-12T07:21:52.757Z,15.57
2018-04-12T07:22:53.447Z,15.58
2018-04-12T07:23:54.126Z,15.58
2018-04-12T07:24:54.802Z,15.70
2018-04-12T07:25:55.480Z,15.75
2018-04-12T07:26:56.157Z,15.61
2018-04-12T07:27:56.834Z,15.64
2018-04-12T07:28:57.511Z,15.64
2018-04-12T07:29:58.189Z,15.64
2018-04-12T07:30:58.867Z,15.68
2018-04-12T07:31:59.545Z,15.58
2018-04-12T07:33:00.219Z,15.65
2018-04-12T07:34:00.897Z,15.58
2018-04-12T07:35:01.590Z,15.75
2018-04-12T07:36:02.255Z,15.83
2018-04-12T07:37:02.933Z,15.92
2018-04-12T07:38:03.609Z,15.83
2018-04-12T07:39:04.285Z,15.91
2018-04-12T07:40:04.962Z,16.04
2018-04-12T07:41:05.639Z,16.13
2018-04-12T07:42:06.325Z,16.09
2018-04-12T07:43:07.007Z,16.17
2018-04-12T07:44:07.687Z,16.21
2018-04-12T07:45:08.367Z,16.26
2018-04-12T07:46:09.042Z,16.31
2018-04-12T07:47:09.735Z,16.29
2018-04-12T07:48:10.420Z,16.33
2018-04-12T07:49:11.103Z,16.29
2018-04-12T07:50:11.780Z,16.23
2018-04-12T07:51:12.458Z,16.32
2018-04-12T07:52:13.139Z,16.35
2018-04-12T07:53:13.820Z,16.43
2018-04-12T07:54:14.494Z,16.49
2018-04-12T07:55:15.175Z,16.64
2018-04-12T07:56:15.852Z,16.50
2018-04-12T07:57:16.530Z,16.57
2018-04-12T07:58:17.217Z,16.75
2018-04-12T07:59:17.894Z,16.78
2018-04-12T08:00:18.571Z,16.93
2018-04-12T08:01:19.249Z,16.94
2018-04-12T08:02:19.936Z,16.97
2018-04-12T08:03:20.617Z,17.06
2018-04-12T08:04:21.298Z,17.06
2018-04-12T08:05:21.978Z,16.96
2018-04-12T08:06:22.664Z,17.05
2018-04-12T08:07:23.351Z,17.22
2018-04-12T08:08:24.027Z,17.22
2018-04-12T08:09:24.703Z,17.27
2018-04-12T08:10:25.386Z,17.36
2018-04-12T08:11:26.065Z,17.33
2018-04-12T08:12:26.747Z,17.34
2018-04-12T08:13:27.423Z,17.33
2018-04-12T08:14:28.101Z,17.41
2018-04-12T08:15:28.777Z,17.38
2018-04-12T08:16:29.458Z,17.41
2018-04-12T08:17:30.139Z,17.46
2018-04-12T08:18:30.815Z,17.64
2018-04-12T08:19:31.493Z,17.57
2018-04-12T08:20:32.171Z,17.60
2018-04-12T08:21:32.850Z,17.76
2018-04-12T08:22:33.532Z,17.48
2018-04-12T08:23:34.214Z,17.54
2018-04-12T08:24:34.889Z,17.54
2018-04-12T08:25:35.567Z,17.54
2018-04-12T08:26:36.249Z,17.48
2018-04-12T08:27:36.926Z,17.49
2018-04-12T08:28:37.603Z,17.56
2018-04-12T08:29:38.284Z,17.44
2018-04-12T08:30:38.968Z,17.59
2018-04-12T08:31:39.644Z,17.51
2018-04-12T08:32:40.339Z,17.46
2018-04-12T08:33:41.019Z,17.48
2018-04-12T08:34:41.693Z,17.45
2018-04-12T08:35:42.380Z,17.45
2018-04-12T08:36:43.053Z,17.44
2018-04-12T08:37:43.738Z,17.52
2018-04-12T08:38:44.424Z,17.60
2018-04-12T08:39:45.105Z,17.42
2018-04-12T08:40:45.781Z,17.44
2018-04-12T08:41:46.459Z,17.51
2018-04-12T08:42:47.132Z,17.49
2018-04-12T08:43:47.810Z,17.44
2018-04-12T08:44:48.488Z,17.52
2018-04-12T08:45:49.188Z,17.48
2018-04-12T08:46:49.858Z,17.60
2018-04-12T08:47:50.548Z,17.63
2018-04-12T08:48:51.223Z,17.72
2018-04-12T08:49:51.912Z,17.71
2018-04-12T08:50:52.591Z,17.71
2018-04-12T08:51:53.269Z,17.52
2018-04-12T08:52:53.948Z,17.67
2018-04-12T08:53:54.632Z,17.64
2018-04-12T08:54:55.307Z,17.79
2018-04-12T08:55:55.987Z,17.72
2018-04-12T08:56:56.666Z,17.72
2018-04-12T08:57:57.348Z,17.86
2018-04-12T08:58:58.029Z,17.86
2018-04-12T08:59:58.710Z,17.90
2018-04-12T09:00:59.395Z,17.94
2018-04-12T09:02:00.068Z,18.00
2018-04-12T09:03:00.749Z,17.92
2018-04-12T09:04:01.433Z,17.92
2018-04-12T09:05:02.115Z,18.03
2018-04-12T09:06:02.793Z,18.07
2018-04-12T09:07:03.468Z,17.97
2018-04-12T09:08:04.156Z,18.13
2018-04-12T09:09:04.835Z,18.20
2018-04-12T09:10:05.510Z,18.34
2018-04-12T09:11:06.193Z,18.33
2018-04-12T09:12:06.874Z,18.52
2018-04-12T09:13:07.562Z,18.58
2018-04-12T09:14:08.241Z,18.71
2018-04-12T09:15:08.923Z,18.65
2018-04-12T09:16:09.606Z,18.80
2018-04-12T09:17:10.286Z,18.77
2018-04-12T09:18:10.973Z,18.83
2018-04-12T09:19:11.653Z,18.86
2018-04-12T09:20:12.352Z,18.84
2018-04-12T09:21:13.012Z,18.84
2018-04-12T09:22:13.694Z,19.04
2018-04-12T09:23:14.379Z,19.04
2018-04-12T09:24:15.056Z,19.08
2018-04-12T09:25:15.732Z,19.02
2018-04-12T09:26:16.414Z,19.02
2018-04-12T09:27:17.090Z,19.00
2018-04-12T09:28:17.771Z,18.96
2018-04-12T09:29:18.453Z,18.99
2018-04-12T09:30:19.130Z,18.99
2018-04-12T09:31:19.780Z,19.04
2018-04-12T09:32:20.487Z,19.02
2018-04-12T09:33:21.222Z,19.02
2018-04-12T09:34:21.849Z,19.12
2018-04-12T09:35:22.531Z,19.08
2018-04-12T09:36:23.206Z,19.19
2018-04-12T09:37:23.883Z,19.22
2018-04-12T09:38:24.561Z,19.36
2018-04-12T09:39:25.248Z,19.39
2018-04-12T09:40:25.924Z,19.45
2018-04-12T09:41:26.609Z,19.49
2018-04-12T09:42:27.290Z,19.54
2018-04-12T09:43:27.976Z,19.54
2018-04-12T09:44:28.654Z,19.70
2018-04-12T09:45:29.341Z,19.76
2018-04-12T09:46:30.021Z,19.88
2018-04-12T09:47:30.708Z,19.91
2018-04-12T09:48:31.387Z,20.07
2018-04-12T09:49:32.089Z,20.18
2018-04-12T09:50:32.760Z,20.28
2018-04-12T09:51:33.440Z,20.34
2018-04-12T09:52:34.116Z,20.47
2018-04-12T09:53:34.797Z,20.52
2018-04-12T09:54:35.478Z,20.74
2018-04-12T09:55:36.154Z,20.75
2018-04-12T09:56:36.831Z,20.88
2018-04-12T09:57:37.513Z,20.96
2018-04-12T09:58:38.194Z,21.15
2018-04-12T09:59:38.883Z,21.15
2018-04-12T10:00:39.560Z,21.00
2018-04-12T10:01:40.239Z,21.12
2018-04-12T10:02:40.918Z,21.17
2018-04-12T10:03:41.615Z,21.32
2018-04-12T10:04:42.293Z,21.55
2018-04-12T10:05:42.973Z,21.58
2018-04-12T10:06:43.668Z,21.55
2018-04-12T10:07:44.360Z,21.42
2018-04-12T10:08:45.044Z,21.52
2018-04-12T10:09:45.720Z,21.50
2018-04-12T10:10:46.397Z,21.55
2018-04-12T10:11:47.078Z,21.72
2018-04-12T10:12:47.756Z,21.75
2018-04-12T10:13:48.441Z,21.80
2018-04-12T10:14:49.118Z,21.96
2018-04-12T10:15:49.796Z,22.13
2018-04-12T10:16:50.479Z,22.11
2018-04-12T10:17:51.157Z,22.13
2018-04-12T10:18:51.839Z,22.22
2018-04-12T10:19:52.519Z,22.11
2018-04-12T10:20:53.199Z,22.14
2018-04-12T10:21:53.886Z,22.08
2018-04-12T10:22:54.567Z,22.06
2018-04-12T10:23:55.251Z,22.18
2018-04-12T10:24:55.929Z,22.06
2018-04-12T10:25:56.605Z,22.15
2018-04-12T10:26:57.287Z,22.44
2018-04-12T10:27:57.974Z,22.70
2018-04-12T10:28:58.653Z,22.87
2018-04-12T10:29:59.333Z,22.91
2018-04-12T10:31:00.017Z,22.78
2018-04-12T10:32:00.701Z,22.80
2018-04-12T10:33:01.380Z,22.57
2018-04-12T10:34:02.059Z,22.50
2018-04-12T10:35:02.739Z,22.55
2018-04-12T10:36:03.420Z,22.57
2018-04-12T10:37:04.108Z,22.70
2018-04-12T10:38:04.787Z,22.85
2018-04-12T10:39:05.470Z,23.02
2018-04-12T10:40:06.154Z,23.00
2018-04-12T10:41:06.836Z,22.85
2018-04-12T10:42:07.519Z,22.60
2018-04-12T10:43:08.198Z,22.91
2018-04-12T10:44:08.884Z,23.18
2018-04-12T10:45:09.565Z,23.37
2018-04-12T10:46:10.255Z,23.13
2018-04-12T10:47:10.936Z,23.28
2018-04-12T10:48:11.616Z,23.54
2018-04-12T10:49:12.301Z,23.65
2018-04-12T10:50:12.982Z,23.83
2018-04-12T10:51:13.664Z,23.80
2018-04-12T10:52:14.348Z,23.98
2018-04-12T10:53:15.032Z,24.16
2018-04-12T10:54:15.720Z,24.23
2018-04-12T10:55:16.402Z,23.96
2018-04-12T10:56:17.083Z,23.76
2018-04-12T10:57:17.764Z,24.06
2018-04-12T10:58:18.447Z,24.23
2018-04-12T10:59:19.132Z,24.48
2018-04-12T11:00:19.810Z,24.54
2018-04-12T11:01:20.495Z,24.53
2018-04-12T11:02:21.178Z,24.38
2018-04-12T11:03:21.867Z,24.50
2018-04-12T11:04:22.541Z,24.32
2018-04-12T11:05:23.222Z,24.06
2018-04-12T11:06:23.903Z,24.05
2018-04-12T11:07:24.602Z,24.05
2018-04-12T11:08:25.283Z,24.36
2018-04-12T11:09:25.962Z,24.35
2018-04-12T11:10:26.650Z,24.48
2018-04-12T11:11:27.336Z,24.65
2018-04-12T11:12:28.019Z,24.53
2018-04-12T11:13:28.709Z,24.68
2018-04-12T11:14:29.389Z,24.70
2018-04-12T11:16:45.626Z,23.96
2018-04-12T11:17:46.313Z,23.84
2018-04-12T11:18:47.000Z,23.87
2018-04-12T11:19:47.681Z,24.36
2018-04-12T11:20:48.366Z,24.32
2018-04-12T11:21:49.047Z,24.69
2018-04-12T11:22:49.736Z,24.73
2018-04-12T11:23:50.420Z,24.65
2018-04-12T11:24:51.125Z,24.73
2018-04-12T11:25:51.815Z,24.53
2018-04-12T11:26:52.472Z,24.33
2018-04-12T11:27:53.173Z,24.35
2018-04-12T11:28:53.856Z,24.40
2018-04-12T11:29:54.537Z,24.36
2018-04-12T11:30:55.219Z,24.66
2018-04-12T11:31:55.903Z,24.95
2018-04-12T11:32:56.639Z,25.18
2018-04-12T11:33:57.276Z,25.23
2018-04-12T11:34:57.958Z,26.33
2018-04-12T11:35:58.649Z,27.92
2018-04-12T11:36:59.353Z,29.59
2018-04-12T11:38:00.022Z,30.65
2018-04-12T11:39:00.715Z,31.55
2018-04-12T11:40:01.400Z,31.94
2018-04-12T11:41:02.089Z,32.46
2018-04-12T11:42:02.775Z,33.17
2018-04-12T11:43:03.463Z,33.84
2018-04-12T11:44:04.154Z,33.86
2018-04-12T11:45:04.835Z,33.27
2018-04-12T11:46:05.526Z,32.18
2018-04-12T11:47:06.216Z,31.22
2018-04-12T11:48:06.903Z,30.87
2018-04-12T11:49:07.599Z,31.14
2018-04-12T11:50:08.272Z,31.42
2018-04-12T11:51:08.967Z,31.14
2018-04-12T11:52:09.666Z,32.41
2018-04-12T11:53:10.354Z,32.11
2018-04-12T11:54:11.038Z,31.81
2018-04-12T11:55:11.725Z,31.96
2018-04-12T11:56:12.409Z,31.74
2018-04-12T11:57:13.094Z,31.31
2018-04-12T11:58:13.754Z,30.77
2018-04-12T11:59:14.442Z,30.27
2018-04-12T12:00:15.137Z,29.51
2018-04-12T12:01:15.819Z,28.22
2018-04-12T12:02:16.554Z,27.37
2018-04-12T12:03:17.202Z,27.52
2018-04-12T12:04:17.887Z,27.49
2018-04-12T12:05:18.573Z,27.89
2018-04-12T12:06:19.259Z,27.70
2018-04-12T12:07:19.945Z,27.86
2018-04-12T12:08:20.630Z,28.10
2018-04-12T12:09:21.324Z,28.81
2018-04-12T12:10:22.014Z,29.29
2018-04-12T12:11:22.711Z,29.93
2018-04-12T12:12:23.437Z,30.84
2018-04-12T12:13:24.087Z,32.23
2018-04-12T12:14:24.776Z,33.36
2018-04-12T12:15:25.461Z,34.33
2018-04-12T12:16:26.148Z,34.02
2018-04-12T12:17:26.844Z,35.86
2018-04-12T12:18:27.531Z,37.13
2018-04-12T12:19:28.225Z,38.28
2018-04-12T12:20:28.913Z,39.70
2018-04-12T12:21:29.616Z,40.30
2018-04-12T12:22:30.308Z,39.46
2018-04-12T12:23:31.000Z,40.46
2018-04-12T12:24:31.693Z,40.92
2018-04-12T12:25:32.388Z,40.77
2018-04-12T12:26:33.072Z,40.41
2018-04-12T12:27:33.769Z,38.38
2018-04-12T12:28:34.474Z,38.39
2018-04-12T12:29:35.158Z,37.83
2018-04-12T12:30:35.843Z,37.55
2018-04-12T12:31:36.540Z,36.25
2018-04-12T12:32:37.228Z,35.83
2018-04-12T12:33:37.919Z,35.42
2018-04-12T12:34:38.611Z,35.11
2018-04-12T12:35:39.305Z,35.31
2018-04-12T12:36:39.996Z,35.14
2018-04-12T12:37:40.687Z,35.89
2018-04-12T12:38:41.381Z,36.20
2018-04-12T12:39:42.071Z,36.12
2018-04-12T12:40:42.757Z,34.78
2018-04-12T12:41:43.449Z,33.96
2018-04-12T12:42:44.131Z,33.39
2018-04-12T12:43:44.833Z,32.37
2018-04-12T12:44:45.513Z,30.66
2018-04-12T12:45:46.203Z,30.72
2018-04-12T12:46:46.894Z,31.12
2018-04-12T12:47:47.589Z,31.21
2018-04-12T12:48:48.273Z,31.28
2018-04-12T12:49:48.960Z,31.28
2018-04-12T12:50:49.647Z,30.83
2018-04-12T12:51:50.336Z,30.78
2018-04-12T12:52:51.023Z,31.14
2018-04-12T12:53:51.717Z,31.29
2018-04-12T12:54:52.404Z,31.74
2018-04-12T12:55:53.101Z,32.27
2018-04-12T12:56:53.789Z,32.75
2018-04-12T12:57:54.479Z,33.45
2018-04-12T12:58:55.168Z,33.73
2018-04-12T12:59:55.855Z,33.68
2018-04-12T13:00:56.542Z,33.22
2018-04-12T13:01:57.231Z,33.68
2018-04-12T13:02:57.915Z,33.31